createdAt,value
2019-03-25T00:01:12.367Z,8.10
2019-03-25T00:03:40.918Z,8.20
2019-03-25T00:06:09.451Z,8.20
2019-03-25T00:08:38.070Z,8.20
2019-03-25T00:11:06.675Z,8.30
2019-03-25T00:13:35.229Z,8.30
2019-03-25T00:16:04.028Z,8.40
2019-03-25T00:18:32.678Z,8.30
2019-03-25T00:21:01.289Z,8.10
2019-03-25T00:23:29.884Z,7.90
2019-03-25T00:25:58.519Z,7.80
2019-03-25T00:28:27.053Z,7.70
2019-03-25T00:30:55.604Z,7.70
2019-03-25T00:33:24.206Z,7.70
2019-03-25T00:35:52.755Z,7.80
2019-03-25T00:38:21.213Z,7.90
2019-03-25T00:40:49.759Z,8.00
2019-03-25T00:43:18.303Z,8.10
2019-03-25T00:45:46.834Z,8.10
2019-03-25T00:48:15.313Z,8.20
2019-03-25T00:50:43.839Z,8.30
2019-03-25T00:53:12.399Z,8.50
2019-03-25T00:55:40.940Z,8.60
2019-03-25T00:58:09.478Z,8.60
2019-03-25T01:00:38.379Z,8.60
2019-03-25T01:03:07.004Z,8.40
2019-03-25T01:05:35.670Z,8.40
2019-03-25T01:08:04.267Z,8.40
2019-03-25T01:10:32.820Z,8.40
2019-03-25T01:13:20.696Z,8.10
2019-03-25T01:15:49.303Z,8.00
2019-03-25T01:18:17.913Z,8.00
2019-03-25T01:20:46.527Z,7.90
2019-03-25T01:23:15.053Z,7.80
2019-03-25T01:25:43.588Z,7.80
2019-03-25T01:28:12.134Z,8.00
2019-03-25T01:30:40.591Z,8.00
2019-03-25T01:33:09.138Z,8.00
2019-03-25T01:35:37.662Z,7.90
2019-03-25T01:38:06.211Z,7.90
2019-03-25T01:40:34.748Z,7.80
2019-03-25T01:43:03.375Z,7.80
2019-03-25T01:45:31.911Z,7.70
2019-03-25T01:48:00.430Z,7.70
2019-03-25T01:50:28.979Z,7.50
2019-03-25T01:52:57.526Z,7.40
2019-03-25T01:55:26.070Z,7.40
2019-03-25T01:57:54.535Z,7.40
2019-03-25T02:00:23.162Z,7.40
2019-03-25T02:02:51.690Z,7.50
2019-03-25T02:05:20.321Z,7.50
2019-03-25T02:07:48.854Z,7.50
2019-03-25T02:10:17.458Z,7.60
2019-03-25T02:12:46.011Z,7.60
2019-03-25T02:15:14.613Z,7.80
2019-03-25T02:17:43.086Z,7.90
2019-03-25T02:20:11.986Z,7.80
2019-03-25T02:22:40.604Z,7.70
2019-03-25T02:25:09.412Z,7.80
2019-03-25T02:27:37.966Z,7.80
2019-03-25T02:30:08.021Z,7.80
2019-03-25T02:32:36.544Z,7.80
2019-03-25T02:35:06.340Z,7.80
2019-03-25T02:37:34.866Z,7.80
2019-03-25T02:40:04.567Z,7.90
2019-03-25T02:42:33.097Z,7.80
2019-03-25T02:45:01.663Z,7.70
2019-03-25T02:47:30.179Z,7.70
2019-03-25T02:49:58.728Z,7.90
2019-03-25T02:52:27.273Z,7.90
2019-03-25T02:54:55.803Z,7.90
2019-03-25T02:57:24.354Z,7.70
2019-03-25T02:59:52.966Z,7.70
2019-03-25T03:02:21.510Z,8.00
2019-03-25T03:04:49.971Z,7.90
2019-03-25T03:07:18.522Z,7.80
2019-03-25T03:09:47.048Z,7.80
2019-03-25T03:12:15.596Z,7.80
2019-03-25T03:14:44.134Z,7.80
2019-03-25T03:17:12.745Z,7.80
2019-03-25T03:19:41.297Z,7.80
2019-03-25T03:22:09.819Z,8.00
2019-03-25T03:24:38.436Z,8.20
2019-03-25T03:27:06.966Z,8.30
2019-03-25T03:29:35.740Z,8.40
2019-03-25T03:32:04.333Z,8.30
2019-03-25T03:34:33.197Z,8.30
2019-03-25T03:37:01.761Z,8.20
2019-03-25T03:39:30.291Z,8.20
2019-03-25T03:41:59.006Z,8.20
2019-03-25T03:44:27.549Z,8.30
2019-03-25T03:46:56.100Z,8.30
2019-03-25T03:49:24.634Z,8.40
2019-03-25T03:51:54.728Z,8.30
2019-03-25T03:54:23.696Z,8.30
2019-03-25T03:56:53.589Z,8.20
2019-03-25T03:59:22.367Z,8.10
2019-03-25T04:01:50.886Z,8.10
2019-03-25T04:04:19.472Z,8.30
2019-03-25T04:06:48.038Z,8.30
2019-03-25T04:09:16.517Z,8.30
2019-03-25T04:11:45.056Z,8.10
2019-03-25T04:14:13.656Z,8.10
2019-03-25T04:16:42.220Z,8.10
2019-03-25T04:19:10.756Z,8.20
2019-03-25T04:21:39.309Z,8.20
2019-03-25T04:24:07.843Z,8.30
2019-03-25T04:26:36.459Z,8.40
2019-03-25T04:29:05.009Z,8.20
2019-03-25T04:31:33.560Z,8.10
2019-03-25T04:34:02.157Z,8.00
2019-03-25T04:36:30.767Z,7.90
2019-03-25T04:38:59.318Z,7.90
2019-03-25T04:41:27.855Z,7.90
2019-03-25T04:43:56.411Z,8.00
2019-03-25T04:46:24.943Z,7.90
2019-03-25T04:48:53.422Z,7.90
2019-03-25T04:51:21.954Z,7.90
2019-03-25T04:53:50.431Z,7.80
2019-03-25T04:56:19.029Z,7.90
2019-03-25T04:58:47.580Z,7.90
2019-03-25T05:01:16.111Z,7.90
2019-03-25T05:03:44.659Z,7.80
2019-03-25T05:06:13.316Z,7.80
2019-03-25T05:08:41.869Z,7.80
2019-03-25T05:11:10.399Z,7.90
2019-03-25T05:13:38.927Z,7.90
2019-03-25T05:16:07.475Z,7.80
2019-03-25T05:18:36.010Z,7.90
2019-03-25T05:21:04.562Z,8.10
2019-03-25T05:23:33.023Z,8.10
2019-03-25T05:26:01.649Z,8.10
2019-03-25T05:28:30.174Z,8.10
2019-03-25T05:30:58.716Z,8.00
2019-03-25T05:33:27.276Z,7.90
2019-03-25T05:35:55.798Z,8.00
2019-03-25T05:38:24.347Z,8.10
2019-03-25T05:40:52.807Z,8.00
2019-03-25T05:43:21.406Z,7.80
2019-03-25T05:45:49.952Z,7.90
2019-03-25T05:48:18.575Z,8.00
2019-03-25T05:50:47.098Z,7.90
2019-03-25T05:53:15.559Z,7.80
2019-03-25T05:55:44.111Z,7.70
2019-03-25T05:58:12.648Z,7.70
2019-03-25T06:00:41.266Z,7.70
2019-03-25T06:03:09.799Z,7.70
2019-03-25T06:05:38.278Z,7.60
2019-03-25T06:08:06.758Z,7.70
2019-03-25T06:10:35.313Z,7.80
2019-03-25T06:13:03.924Z,7.80
2019-03-25T06:15:32.512Z,7.80
2019-03-25T06:18:00.992Z,7.80
2019-03-25T06:20:29.519Z,7.80
2019-03-25T06:22:58.062Z,7.80
2019-03-25T06:25:26.520Z,7.90
2019-03-25T06:27:55.075Z,7.70
2019-03-25T06:30:23.746Z,7.70
2019-03-25T06:32:52.278Z,7.70
2019-03-25T06:35:20.754Z,7.60
2019-03-25T06:37:49.296Z,7.60
2019-03-25T06:40:17.985Z,7.50
2019-03-25T06:42:46.514Z,7.50
2019-03-25T06:45:15.331Z,7.50
2019-03-25T06:47:43.864Z,7.50
2019-03-25T06:50:12.487Z,7.50
2019-03-25T06:52:41.030Z,7.60
2019-03-25T06:55:10.200Z,7.50
2019-03-25T06:57:39.035Z,7.50
2019-03-25T07:00:09.247Z,7.50
2019-03-25T07:02:37.945Z,7.50
2019-03-25T07:05:08.708Z,7.50
2019-03-25T07:07:37.390Z,7.50
2019-03-25T07:10:06.871Z,7.70
2019-03-25T07:12:36.769Z,7.80
2019-03-25T07:15:09.096Z,7.80
2019-03-25T07:17:37.777Z,7.70
2019-03-25T07:20:09.840Z,7.70
2019-03-25T07:22:38.524Z,7.70
2019-03-25T07:25:07.134Z,7.70
2019-03-25T07:27:37.037Z,7.70
2019-03-25T07:30:07.152Z,7.70
2019-03-25T07:32:35.847Z,7.50
2019-03-25T07:35:06.417Z,7.60
2019-03-25T07:37:34.961Z,7.60
2019-03-25T07:40:05.607Z,7.50
2019-03-25T07:42:34.298Z,7.60
2019-03-25T07:45:03.639Z,7.60
2019-03-25T07:47:32.187Z,7.60
2019-03-25T07:50:00.719Z,7.50
2019-03-25T07:52:29.274Z,7.40
2019-03-25T07:54:57.815Z,7.30
2019-03-25T07:57:26.386Z,7.20
2019-03-25T07:59:54.919Z,7.20
2019-03-25T08:02:23.521Z,7.20
2019-03-25T08:04:52.086Z,7.20
2019-03-25T08:07:20.606Z,7.20
2019-03-25T08:09:49.165Z,7.20
2019-03-25T08:12:17.708Z,7.20
2019-03-25T08:14:46.344Z,7.20
2019-03-25T08:17:14.951Z,7.30
2019-03-25T08:19:43.507Z,7.30
2019-03-25T08:22:12.178Z,7.20
2019-03-25T08:24:40.711Z,7.20
2019-03-25T08:27:09.335Z,7.10
2019-03-25T08:29:37.866Z,7.10
2019-03-25T08:32:06.422Z,7.20
2019-03-25T08:34:34.957Z,7.30
2019-03-25T08:37:04.457Z,7.30
2019-03-25T08:39:33.267Z,7.40
2019-03-25T08:42:01.935Z,7.50
2019-03-25T08:44:30.491Z,7.50
2019-03-25T08:46:59.099Z,7.30
2019-03-25T08:49:27.653Z,7.10
2019-03-25T08:51:56.186Z,7.20
2019-03-25T08:54:24.746Z,7.30
2019-03-25T08:56:53.289Z,7.50
2019-03-25T08:59:21.888Z,7.50
2019-03-25T09:01:50.478Z,7.30
2019-03-25T09:04:19.088Z,7.20
2019-03-25T09:06:48.021Z,7.20
2019-03-25T09:09:16.706Z,7.20
2019-03-25T09:11:45.190Z,7.10
2019-03-25T09:14:13.723Z,7.10
2019-03-25T09:16:42.270Z,7.30
2019-03-25T09:19:10.730Z,7.30
2019-03-25T09:21:39.531Z,7.30
2019-03-25T09:24:08.133Z,7.20
2019-03-25T09:26:36.727Z,7.10
2019-03-25T09:29:05.419Z,7.10
2019-03-25T09:31:36.951Z,7.00
2019-03-25T09:34:04.464Z,6.90
2019-03-25T09:36:32.996Z,6.80
2019-03-25T09:39:01.546Z,6.60
2019-03-25T09:41:30.073Z,6.50
2019-03-25T09:43:58.636Z,6.30
2019-03-25T09:46:27.171Z,6.20
2019-03-25T09:48:55.706Z,6.10
2019-03-25T09:51:24.402Z,6.00
2019-03-25T09:53:52.935Z,6.10
2019-03-25T09:56:21.479Z,6.10
2019-03-25T09:58:50.075Z,6.10
2019-03-25T10:01:18.966Z,6.20
2019-03-25T10:03:47.630Z,6.10
2019-03-25T10:06:16.164Z,6.10
2019-03-25T10:08:44.704Z,6.20
2019-03-25T10:11:13.307Z,6.20
2019-03-25T10:13:42.007Z,6.10
2019-03-25T10:16:10.671Z,6.20
2019-03-25T10:18:39.293Z,6.20
2019-03-25T10:21:07.814Z,6.40
2019-03-25T10:23:36.276Z,6.40
2019-03-25T10:26:05.164Z,6.40
2019-03-25T10:28:33.758Z,6.50
2019-03-25T10:31:02.383Z,6.60
2019-03-25T10:33:30.986Z,6.60
2019-03-25T10:35:59.536Z,6.70
2019-03-25T10:38:28.140Z,6.90
2019-03-25T10:40:56.687Z,7.00
2019-03-25T10:43:25.151Z,7.00
2019-03-25T10:45:53.770Z,7.10
2019-03-25T10:48:22.374Z,7.30
2019-03-25T10:50:50.932Z,7.30
2019-03-25T10:53:19.451Z,7.30
2019-03-25T10:55:48.084Z,7.20
2019-03-25T10:58:16.615Z,7.20
2019-03-25T11:00:45.386Z,7.40
2019-03-25T11:03:14.013Z,7.50
2019-03-25T11:05:42.538Z,7.40
2019-03-25T11:08:11.153Z,7.30
2019-03-25T11:10:39.755Z,7.30
2019-03-25T11:13:08.371Z,7.30
2019-03-25T11:15:36.827Z,7.10
2019-03-25T11:18:05.897Z,7.00
2019-03-25T11:20:34.614Z,7.00
2019-03-25T11:23:03.144Z,7.00
2019-03-25T11:25:31.690Z,6.90
2019-03-25T11:28:01.309Z,7.00
2019-03-25T11:30:50.708Z,7.00
2019-03-25T11:33:19.302Z,7.00
2019-03-25T11:35:47.866Z,7.00
2019-03-25T11:38:16.463Z,7.00
2019-03-25T11:40:45.079Z,7.00
2019-03-25T11:43:13.620Z,7.10
2019-03-25T11:45:42.236Z,7.10
2019-03-25T11:48:10.825Z,7.20
2019-03-25T11:50:39.727Z,7.20
2019-03-25T11:53:08.270Z,7.30
2019-03-25T11:55:36.730Z,7.40
2019-03-25T11:58:05.353Z,7.30
2019-03-25T12:00:33.893Z,7.30
2019-03-25T12:03:02.447Z,7.40
2019-03-25T12:05:30.975Z,7.40
2019-03-25T12:07:59.590Z,7.40
2019-03-25T12:10:28.119Z,7.40
2019-03-25T12:12:56.666Z,7.40
2019-03-25T12:15:25.123Z,7.40
2019-03-25T12:17:53.664Z,7.40
2019-03-25T12:20:22.281Z,7.40
2019-03-25T12:22:50.806Z,7.40
2019-03-25T12:25:19.826Z,7.40
2019-03-25T12:27:48.374Z,7.40
2019-03-25T12:30:17.162Z,7.40
2019-03-25T12:32:45.800Z,7.40
2019-03-25T12:35:14.503Z,7.40
2019-03-25T12:37:43.034Z,7.40
2019-03-25T12:40:11.650Z,7.40
2019-03-25T12:42:40.187Z,7.40
2019-03-25T12:45:09.102Z,7.40
2019-03-25T12:47:37.671Z,7.50
2019-03-25T12:50:09.588Z,7.60
2019-03-25T12:52:38.190Z,7.80
2019-03-25T12:55:07.179Z,7.70
2019-03-25T12:57:35.716Z,7.80
2019-03-25T13:00:06.580Z,7.80
2019-03-25T13:02:35.092Z,7.90
2019-03-25T13:05:04.678Z,8.00
2019-03-25T13:07:33.194Z,8.00
2019-03-25T13:10:01.758Z,8.00
2019-03-25T13:12:30.346Z,8.00
2019-03-25T13:14:58.901Z,8.00
2019-03-25T13:17:27.433Z,8.10
2019-03-25T13:19:55.975Z,8.10
2019-03-25T13:22:24.866Z,8.10
2019-03-25T13:24:53.343Z,8.20
2019-03-25T13:27:21.943Z,8.20
2019-03-25T13:29:52.775Z,8.30
2019-03-25T13:32:20.840Z,8.30
2019-03-25T13:34:49.384Z,8.30
2019-03-25T13:37:17.908Z,8.40
2019-03-25T13:39:46.454Z,8.40
2019-03-25T13:42:14.974Z,8.40
2019-03-25T13:44:43.439Z,8.30
2019-03-25T13:47:11.966Z,8.40
2019-03-25T13:49:40.523Z,8.40
2019-03-25T13:52:09.255Z,8.50
2019-03-25T13:54:37.803Z,8.60
2019-03-25T13:57:06.319Z,8.50
2019-03-25T13:59:35.095Z,8.60
2019-03-25T14:02:03.623Z,8.60
2019-03-25T14:04:32.164Z,8.50
2019-03-25T14:07:00.687Z,8.50
2019-03-25T14:09:29.230Z,8.40
2019-03-25T14:11:57.700Z,8.30
2019-03-25T14:14:26.300Z,8.30
2019-03-25T14:16:54.818Z,8.30
2019-03-25T14:19:23.371Z,8.20
2019-03-25T14:21:51.964Z,8.20
2019-03-25T14:24:20.680Z,8.20
2019-03-25T14:26:49.199Z,8.20
2019-03-25T14:29:17.679Z,8.10
2019-03-25T14:31:46.212Z,8.10
2019-03-25T14:34:14.767Z,7.90
2019-03-25T14:36:43.290Z,7.80
2019-03-25T14:39:11.998Z,7.80
2019-03-25T14:41:40.522Z,7.90
2019-03-25T14:44:09.079Z,7.80
2019-03-25T14:46:37.603Z,7.80
2019-03-25T14:49:09.801Z,7.80
2019-03-25T14:51:37.611Z,7.80
2019-03-25T14:54:06.155Z,7.80
2019-03-25T14:56:34.603Z,7.90
2019-03-25T14:59:03.151Z,8.00
2019-03-25T15:01:31.820Z,8.00
2019-03-25T15:04:00.351Z,8.10
2019-03-25T15:06:29.018Z,8.20
2019-03-25T15:08:57.559Z,8.20
2019-03-25T15:11:26.255Z,8.30
2019-03-25T15:13:54.813Z,8.20
2019-03-25T15:16:23.411Z,8.00
2019-03-25T15:18:51.887Z,7.50
2019-03-25T15:21:20.590Z,7.20
2019-03-25T15:23:49.735Z,6.80
2019-03-25T15:26:18.215Z,6.60
2019-03-25T15:28:46.836Z,6.40
2019-03-25T15:31:15.431Z,6.10
2019-03-25T15:33:44.043Z,5.90
2019-03-25T15:36:12.576Z,5.80
2019-03-25T15:38:41.110Z,5.80
2019-03-25T15:41:09.627Z,5.80
2019-03-25T15:43:38.174Z,5.70
2019-03-25T15:46:06.756Z,5.60
2019-03-25T15:48:35.368Z,5.50
2019-03-25T15:51:03.890Z,5.30
2019-03-25T15:53:32.356Z,5.20
2019-03-25T15:56:00.881Z,5.30
2019-03-25T15:58:29.400Z,5.40
2019-03-25T16:00:57.942Z,5.50
2019-03-25T16:03:26.478Z,5.50
2019-03-25T16:05:54.926Z,5.70
2019-03-25T16:08:23.384Z,5.80
2019-03-25T16:10:52.030Z,5.80
2019-03-25T16:13:20.608Z,5.80
2019-03-25T16:15:49.275Z,5.80
2019-03-25T16:18:26.574Z,5.60
2019-03-25T16:20:55.047Z,5.70
2019-03-25T16:23:23.569Z,5.70
2019-03-25T16:25:52.113Z,5.80
2019-03-25T16:28:20.634Z,5.90
2019-03-25T16:30:58.146Z,5.90
2019-03-25T16:33:19.362Z,6.00
2019-03-25T16:35:48.703Z,6.00
2019-03-25T16:38:17.261Z,6.10
2019-03-25T16:40:47.742Z,6.10
2019-03-25T16:43:16.553Z,6.00
2019-03-25T16:45:46.484Z,6.00
2019-03-25T16:48:15.905Z,5.80
2019-03-25T16:50:45.221Z,5.50
2019-03-25T16:53:14.551Z,5.40
2019-03-25T16:55:43.773Z,5.40
2019-03-25T16:58:12.236Z,5.60
2019-03-25T17:00:40.761Z,5.70
2019-03-25T17:03:09.512Z,5.50
2019-03-25T17:05:38.054Z,5.40
2019-03-25T17:08:07.559Z,5.50
2019-03-25T17:10:36.087Z,5.50
2019-03-25T17:13:04.746Z,5.40
2019-03-25T17:15:33.286Z,5.40
2019-03-25T17:18:01.815Z,5.20
2019-03-25T17:20:30.355Z,5.10
2019-03-25T17:22:58.883Z,5.10
2019-03-25T17:25:27.434Z,5.00
2019-03-25T17:27:55.946Z,5.10
2019-03-25T17:30:25.464Z,5.10
2019-03-25T17:32:54.637Z,5.10
2019-03-25T17:35:23.879Z,5.10
2019-03-25T17:37:52.957Z,5.20
2019-03-25T17:40:22.414Z,5.20
2019-03-25T17:42:51.534Z,5.30
2019-03-25T17:45:22.985Z,5.40
2019-03-25T17:47:51.981Z,5.40
2019-03-25T17:50:22.087Z,5.50
2019-03-25T17:52:51.608Z,5.50
2019-03-25T17:55:20.908Z,5.30
2019-03-25T17:57:50.366Z,5.30
2019-03-25T18:00:22.070Z,5.20
2019-03-25T18:02:50.595Z,5.00
2019-03-25T18:05:19.119Z,4.80
2019-03-25T18:07:47.711Z,4.60
2019-03-25T18:10:16.326Z,4.60
2019-03-25T18:12:45.465Z,4.50
2019-03-25T18:15:14.195Z,4.30
2019-03-25T18:17:42.717Z,4.20
2019-03-25T18:20:18.491Z,3.80
2019-03-25T18:22:41.569Z,3.80
2019-03-25T18:25:10.195Z,4.00
2019-03-25T18:27:38.775Z,4.10
2019-03-25T18:30:07.874Z,4.20
2019-03-25T18:32:36.408Z,4.20
2019-03-25T18:35:06.175Z,4.20
2019-03-25T18:37:34.762Z,4.20
2019-03-25T18:40:03.691Z,4.10
2019-03-25T18:42:32.223Z,4.20
2019-03-25T18:45:00.734Z,4.10
2019-03-25T18:47:29.276Z,4.00
2019-03-25T18:49:57.804Z,4.00
2019-03-25T18:52:27.156Z,3.90
2019-03-25T18:54:57.490Z,3.90
2019-03-25T18:57:26.156Z,4.00
2019-03-25T18:59:54.759Z,4.10
2019-03-25T19:02:23.458Z,4.00
2019-03-25T19:04:52.058Z,3.70
2019-03-25T19:07:20.844Z,3.40
2019-03-25T19:09:51.303Z,3.30
2019-03-25T19:12:39.136Z,3.30
2019-03-25T19:15:07.672Z,3.40
2019-03-25T19:17:36.213Z,3.50
2019-03-25T19:20:06.259Z,3.30
2019-03-25T19:22:34.791Z,3.20
2019-03-25T19:25:03.686Z,3.00
2019-03-25T19:27:32.224Z,3.10
2019-03-25T19:30:00.700Z,3.20
2019-03-25T19:32:29.331Z,3.30
2019-03-25T19:34:57.822Z,3.40
2019-03-25T19:37:26.280Z,3.30
2019-03-25T19:39:54.811Z,3.40
2019-03-25T19:42:23.361Z,3.40
2019-03-25T19:44:51.870Z,3.30
2019-03-25T19:47:20.393Z,3.30
2019-03-25T19:49:49.085Z,3.30
2019-03-25T19:52:17.630Z,3.40
2019-03-25T19:54:46.083Z,3.40
2019-03-25T19:57:14.687Z,3.40
2019-03-25T19:59:43.130Z,3.20
2019-03-25T20:02:18.855Z,2.80
2019-03-25T20:04:41.843Z,2.60
2019-03-25T20:07:10.437Z,2.50
2019-03-25T20:09:38.984Z,2.50
2019-03-25T20:12:07.519Z,2.40
2019-03-25T20:14:35.977Z,2.50
2019-03-25T20:17:04.596Z,2.40
2019-03-25T20:19:33.106Z,2.30
2019-03-25T20:22:01.609Z,2.40
2019-03-25T20:24:30.193Z,2.40
2019-03-25T20:26:58.715Z,2.30
2019-03-25T20:29:27.267Z,2.40
2019-03-25T20:31:55.792Z,2.50
2019-03-25T20:34:24.311Z,2.80
2019-03-25T20:36:52.845Z,3.00
2019-03-25T20:39:21.974Z,3.10
2019-03-25T20:41:50.662Z,3.10
2019-03-25T20:44:19.188Z,3.20
2019-03-25T20:46:47.740Z,3.30
2019-03-25T20:49:16.261Z,3.10
2019-03-25T20:51:44.809Z,2.90
2019-03-25T20:54:13.307Z,2.50
2019-03-25T20:56:41.862Z,2.30
2019-03-25T20:59:10.379Z,2.30
2019-03-25T21:01:38.944Z,2.30
2019-03-25T21:04:07.566Z,2.20
2019-03-25T21:06:36.018Z,2.20
2019-03-25T21:09:05.635Z,2.20
2019-03-25T21:11:34.143Z,2.30
2019-03-25T21:14:02.787Z,2.50
2019-03-25T21:16:31.297Z,2.70
2019-03-25T21:18:59.872Z,2.90
2019-03-25T21:21:28.401Z,2.80
2019-03-25T21:23:57.066Z,2.80
2019-03-25T21:26:25.658Z,2.80
2019-03-25T21:28:54.287Z,2.70
2019-03-25T21:31:22.911Z,2.70
2019-03-25T21:33:51.505Z,2.80
2019-03-25T21:36:19.981Z,2.70
2019-03-25T21:38:48.542Z,2.50
2019-03-25T21:41:17.145Z,2.30
2019-03-25T21:43:45.765Z,2.10
2019-03-25T21:46:14.262Z,1.90
2019-03-25T21:48:42.764Z,1.70
2019-03-25T21:51:11.382Z,1.60
2019-03-25T21:53:39.899Z,1.60
2019-03-25T21:56:08.407Z,1.60
2019-03-25T21:58:36.872Z,1.60
2019-03-25T22:01:05.542Z,1.60
2019-03-25T22:03:34.067Z,1.70
2019-03-25T22:06:02.615Z,1.60
2019-03-25T22:08:31.137Z,1.60
2019-03-25T22:10:59.658Z,1.70
2019-03-25T22:13:28.124Z,1.90
2019-03-25T22:15:56.644Z,1.80
2019-03-25T22:18:25.187Z,1.80
2019-03-25T22:20:53.711Z,1.70
2019-03-25T22:23:22.175Z,1.60
2019-03-25T22:25:50.619Z,1.60
2019-03-25T22:28:19.083Z,1.60
2019-03-25T22:30:47.539Z,1.60
2019-03-25T22:33:25.697Z,1.70
2019-03-25T22:35:46.254Z,1.70
2019-03-25T22:38:14.767Z,1.70
2019-03-25T22:40:43.232Z,1.70
2019-03-25T22:43:11.826Z,1.80
2019-03-25T22:45:40.372Z,1.90
2019-03-25T22:48:08.959Z,2.00
2019-03-25T22:50:37.502Z,2.00
2019-03-25T22:53:06.162Z,2.00
2019-03-25T22:55:34.682Z,2.10
2019-03-25T22:58:04.309Z,2.00
2019-03-25T23:00:34.530Z,2.00
2019-03-25T23:03:03.007Z,2.10
2019-03-25T23:05:31.534Z,2.10
2019-03-25T23:08:00.072Z,1.90
2019-03-25T23:10:28.597Z,1.80
2019-03-25T23:12:57.124Z,1.70
2019-03-25T23:15:25.794Z,1.80
2019-03-25T23:17:54.320Z,1.80
2019-03-25T23:20:22.854Z,1.80
2019-03-25T23:22:51.306Z,1.90
2019-03-25T23:25:19.779Z,2.10
2019-03-25T23:27:48.294Z,2.20
2019-03-25T23:30:16.938Z,2.30
2019-03-25T23:32:45.464Z,2.10
2019-03-25T23:35:14.051Z,2.10
2019-03-25T23:37:42.599Z,2.20
2019-03-25T23:40:11.274Z,2.30
2019-03-25T23:42:39.722Z,2.30
2019-03-25T23:45:08.649Z,2.30
2019-03-25T23:47:37.178Z,2.20
2019-03-25T23:50:07.003Z,2.10
2019-03-25T23:52:35.550Z,1.90
2019-03-25T23:55:06.112Z,1.70
2019-03-25T23:57:34.639Z,1.50
